Храброво

Карта отелей и гостиниц, располагающихся рядом с аэропортом Храброво :

Храброво
Калининград
Калининградская область 54° 53' 24" N, 20° 35' 33" E
Код аэродрома ИКАО
UMKK
Код аэродрома RU
УМКК
Координаты
N54.89000° E020.59250°
Превышение над уровнем моря
13
Основная полоса
06/24
Курс магнитный
060,4/240,4
Длина основной ВПП
2500
Ширина основной ВПП
45
Покрытие основной ВПП
Твёрдое (асфальтобетон)
Освещение ВПП
Постоянное
Тип: 
Аэродром
Класс аэродрома: 
Международный
Принадлежность: 
ГА
Статус: 
Действующий
Страна: 
Россия
Регион: 
Калининградская область
Город: 
Калининград
Дополнительная информация: 
Совместного базирования (ФАВТ, МО РФ, ФСБ, ФТС, МЧС, ЛукОйл). Нкр.=(500)м. Военный индекс: XMKK / ЬМКК. В 2017-2018 г. проводится реконструкция, ВПП удлиняется на восток, возможны ограничения полетов. БПРМ-24 и ИЛС не работают. Заход VOR/DME.
Схемы аэропортов: 
Погода: 

Авиационная погода в Храброво

Регион: 
Погода METAR: 
UMKK 282200Z 25004MPS 9999 BKN009 BKN052CB 18/18 Q1019 R24/95D TEMPO 2000 TSRA BKN016CB RMK QFE763/1018
Время наблюдения
2022-06-28T22:00:00Z
Температура C
18.0
Точка росы
18.0
Направление ветра
250
Скорость ветра (узлы)
8
Метео видимость
6.21
Облачность
BKN
BKN
Нижняя граница облачности (футы)
900
5200
Явления погоды
Условия полета
IFR
Аэропорт подробнее: 
BKN – значительная (рассеянная, разорванная) облачность;

Найти трансфер

С помощью этой формы Вы можете найти трансфер из аэропорта Храброво в город, аэропорт или вокзал:

Погода в аэропортах:

Авиационная погода в Архангельске

Регион: 
Погода METAR: 
ULAA 282200Z 00000MPS 9999 MIFG NSC 06/06 Q1028 R26/CLRD70 NOSIG RMK QFE769/1026
Время наблюдения
2022-06-28T22:00:00Z
Температура C
6.0
Точка росы
6.0
Направление ветра
0
Скорость ветра (узлы)
0
Метео видимость
6.21
Облачность
CLR
Нижняя граница облачности (футы)
Явления погоды
MIFG
Условия полета
VFR
Аэропорт подробнее: 
CLR — нет облаков ниже 3000 м
MIFG - туман поземный;

Авиационная погода в Мирном

Регион: 
Погода METAR: 
UERR 282200Z 06003MPS 0700 FG VV003 10/10 Q1000 R07/CLRD60 TEMPO 0300 FG VV001 RMK QBB070 QFE720/0960
Время наблюдения
2022-06-28T22:00:00Z
Температура C
10.0
Точка росы
10.0
Направление ветра
60
Скорость ветра (узлы)
6
Метео видимость
0.43
Облачность
OVX
Нижняя граница облачности (футы)
0
Явления погоды
FG
Условия полета
LIFR
Аэропорт подробнее: 
FG – туман (небо не видно, температура воздуха выше нуля или ноль);

Авиационная погода в Бухте Провидения

Погода METAR: 
UHMD 282200Z 20004MPS 2500 BR OVC003 06/05 Q1018 RMK QBB110 MT OBSC QFE763/1017
Время наблюдения
2022-06-28T22:00:00Z
Температура C
6.0
Точка росы
5.0
Направление ветра
200
Скорость ветра (узлы)
8
Метео видимость
1.55
Облачность
OVC
Нижняя граница облачности (футы)
300
Явления погоды
BR
Условия полета
LIFR
Аэропорт подробнее: 
OVC – сплошная облачность;
BR – дымка (видимость от 1 до 9 км);

Авиационная погода в Ханты-Мансийске

Регион: 
Погода METAR: 
USHH 282200Z 29001MPS 4400 -SHRA BR BKN003CB 10/10 Q0996 R24/290050 TEMPO 1000 SHRA BR OVC002CB
Время наблюдения
2022-06-28T22:00:00Z
Температура C
10.0
Точка росы
10.0
Направление ветра
290
Скорость ветра (узлы)
2
Метео видимость
2.73
Облачность
BKN
Нижняя граница облачности (футы)
300
Явления погоды
-SHRA BR
Условия полета
LIFR
Аэропорт подробнее: 
BKN – значительная (рассеянная, разорванная) облачность;
-SHRA - слабый ливневой дождь; BR – дымка (видимость от 1 до 9 км);